sensor_id;sensor_type;location;lat;lon;timestamp;P1;durP1;ratioP1;P2;durP2;ratioP2
79076;SDS011;68477;42.698;23.342;2023-03-14T00:01:10;10.27;;;5.38;;
79076;SDS011;68477;42.698;23.342;2023-03-14T00:03:41;9.48;;;5.60;;
79076;SDS011;68477;42.698;23.342;2023-03-14T00:06:06;10.65;;;5.20;;
79076;SDS011;68477;42.698;23.342;2023-03-14T00:08:33;8.93;;;5.03;;
79076;SDS011;68477;42.698;23.342;2023-03-14T00:11:03;10.93;;;5.55;;
79076;SDS011;68477;42.698;23.342;2023-03-14T00:13:36;10.75;;;5.38;;
79076;SDS011;68477;42.698;23.342;2023-03-14T00:16:06;11.57;;;6.10;;
79076;SDS011;68477;42.698;23.342;2023-03-14T00:18:35;13.50;;;5.30;;
79076;SDS011;68477;42.698;23.342;2023-03-14T00:21:00;11.88;;;5.07;;
79076;SDS011;68477;42.698;23.342;2023-03-14T00:23:28;10.38;;;4.97;;
79076;SDS011;68477;42.698;23.342;2023-03-14T00:25:58;10.80;;;5.43;;
79076;SDS011;68477;42.698;23.342;2023-03-14T00:28:28;10.73;;;5.15;;
79076;SDS011;68477;42.698;23.342;2023-03-14T00:30:53;10.35;;;4.80;;
79076;SDS011;68477;42.698;23.342;2023-03-14T00:33:20;9.23;;;4.90;;
79076;SDS011;68477;42.698;23.342;2023-03-14T00:35:55;9.05;;;4.03;;
79076;SDS011;68477;42.698;23.342;2023-03-14T00:38:22;10.55;;;5.22;;
79076;SDS011;68477;42.698;23.342;2023-03-14T00:40:49;7.30;;;4.47;;
79076;SDS011;68477;42.698;23.342;2023-03-14T00:43:15;10.35;;;5.00;;
79076;SDS011;68477;42.698;23.342;2023-03-14T00:45:41;9.43;;;5.03;;
79076;SDS011;68477;42.698;23.342;2023-03-14T00:48:06;9.75;;;4.22;;
79076;SDS011;68477;42.698;23.342;2023-03-14T00:50:32;9.38;;;4.60;;
79076;SDS011;68477;42.698;23.342;2023-03-14T00:52:57;10.35;;;5.47;;
79076;SDS011;68477;42.698;23.342;2023-03-14T00:55:23;5.13;;;3.65;;
79076;SDS011;68477;42.698;23.342;2023-03-14T00:57:49;11.65;;;4.60;;
79076;SDS011;68477;42.698;23.342;2023-03-14T01:00:15;7.50;;;4.28;;
79076;SDS011;68477;42.698;23.342;2023-03-14T01:02:41;8.82;;;4.60;;
79076;SDS011;68477;42.698;23.342;2023-03-14T01:05:06;6.95;;;4.10;;
79076;SDS011;68477;42.698;23.342;2023-03-14T01:07:32;6.05;;;3.95;;
79076;SDS011;68477;42.698;23.342;2023-03-14T01:09:58;6.25;;;3.45;;
79076;SDS011;68477;42.698;23.342;2023-03-14T01:12:24;8.23;;;3.70;;
79076;SDS011;68477;42.698;23.342;2023-03-14T01:14:49;6.85;;;3.75;;
79076;SDS011;68477;42.698;23.342;2023-03-14T01:17:14;10.68;;;3.97;;
79076;SDS011;68477;42.698;23.342;2023-03-14T01:19:40;7.72;;;3.75;;
79076;SDS011;68477;42.698;23.342;2023-03-14T01:22:05;8.13;;;4.18;;
79076;SDS011;68477;42.698;23.342;2023-03-14T01:24:31;9.00;;;3.67;;
79076;SDS011;68477;42.698;23.342;2023-03-14T01:26:56;7.30;;;3.97;;
79076;SDS011;68477;42.698;23.342;2023-03-14T01:29:22;8.27;;;4.53;;
79076;SDS011;68477;42.698;23.342;2023-03-14T01:31:47;8.35;;;4.45;;
79076;SDS011;68477;42.698;23.342;2023-03-14T01:34:12;8.18;;;4.45;;
79076;SDS011;68477;42.698;23.342;2023-03-14T01:36:38;6.63;;;3.97;;
79076;SDS011;68477;42.698;23.342;2023-03-14T01:39:03;8.00;;;4.25;;
79076;SDS011;68477;42.698;23.342;2023-03-14T01:41:31;8.73;;;4.20;;
79076;SDS011;68477;42.698;23.342;2023-03-14T01:43:56;7.05;;;3.78;;
79076;SDS011;68477;42.698;23.342;2023-03-14T01:46:42;5.60;;;3.85;;
79076;SDS011;68477;42.698;23.342;2023-03-14T01:49:15;6.07;;;3.85;;
79076;SDS011;68477;42.698;23.342;2023-03-14T01:51:51;7.03;;;4.00;;
79076;SDS011;68477;42.698;23.342;2023-03-14T01:54:19;8.23;;;4.43;;
79076;SDS011;68477;42.698;23.342;2023-03-14T01:56:47;7.25;;;4.10;;
79076;SDS011;68477;42.698;23.342;2023-03-14T01:59:27;7.93;;;4.15;;
79076;SDS011;68477;42.698;23.342;2023-03-14T02:01:55;9.27;;;4.63;;
79076;SDS011;68477;42.698;23.342;2023-03-14T02:04:21;8.52;;;4.25;;
79076;SDS011;68477;42.698;23.342;2023-03-14T02:09:21;6.47;;;4.32;;
79076;SDS011;68477;42.698;23.342;2023-03-14T02:11:47;7.35;;;4.13;;
79076;SDS011;68477;42.698;23.342;2023-03-14T02:14:17;7.88;;;4.25;;
79076;SDS011;68477;42.698;23.342;2023-03-14T02:16:50;8.73;;;4.55;;
79076;SDS011;68477;42.698;23.342;2023-03-14T02:19:17;6.90;;;3.97;;
79076;SDS011;68477;42.698;23.342;2023-03-14T02:21:57;9.43;;;4.53;;
79076;SDS011;68477;42.698;23.342;2023-03-14T02:24:38;8.32;;;4.22;;
79076;SDS011;68477;42.698;23.342;2023-03-14T02:27:25;8.48;;;4.28;;
79076;SDS011;68477;42.698;23.342;2023-03-14T02:29:52;8.60;;;3.92;;
79076;SDS011;68477;42.698;23.342;2023-03-14T02:32:22;5.78;;;3.63;;
79076;SDS011;68477;42.698;23.342;2023-03-14T02:34:50;8.90;;;4.55;;
79076;SDS011;68477;42.698;23.342;2023-03-14T02:37:20;8.95;;;4.50;;
79076;SDS011;68477;42.698;23.342;2023-03-14T02:39:48;9.10;;;4.50;;
79076;SDS011;68477;42.698;23.342;2023-03-14T02:42:14;7.93;;;4.82;;
79076;SDS011;68477;42.698;23.342;2023-03-14T02:47:35;10.32;;;4.35;;
79076;SDS011;68477;42.698;23.342;2023-03-14T02:50:03;10.40;;;4.60;;
79076;SDS011;68477;42.698;23.342;2023-03-14T02:52:33;12.52;;;6.00;;
79076;SDS011;68477;42.698;23.342;2023-03-14T02:54:58;14.27;;;7.05;;
79076;SDS011;68477;42.698;23.342;2023-03-14T02:57:23;11.02;;;6.50;;
79076;SDS011;68477;42.698;23.342;2023-03-14T02:59:49;11.82;;;6.85;;
79076;SDS011;68477;42.698;23.342;2023-03-14T03:02:14;15.18;;;7.13;;
79076;SDS011;68477;42.698;23.342;2023-03-14T03:04:40;14.45;;;7.18;;
79076;SDS011;68477;42.698;23.342;2023-03-14T03:07:05;16.52;;;7.38;;
79076;SDS011;68477;42.698;23.342;2023-03-14T03:09:31;14.18;;;8.15;;
79076;SDS011;68477;42.698;23.342;2023-03-14T03:11:56;14.70;;;8.13;;
79076;SDS011;68477;42.698;23.342;2023-03-14T03:14:22;16.38;;;7.68;;
79076;SDS011;68477;42.698;23.342;2023-03-14T03:16:47;14.38;;;7.38;;
79076;SDS011;68477;42.698;23.342;2023-03-14T03:19:14;12.65;;;6.82;;
79076;SDS011;68477;42.698;23.342;2023-03-14T03:21:42;15.10;;;7.30;;
79076;SDS011;68477;42.698;23.342;2023-03-14T03:24:08;16.08;;;7.85;;
79076;SDS011;68477;42.698;23.342;2023-03-14T03:26:36;12.60;;;7.82;;
79076;SDS011;68477;42.698;23.342;2023-03-14T03:29:01;18.90;;;9.30;;
79076;SDS011;68477;42.698;23.342;2023-03-14T03:31:27;15.60;;;7.10;;
79076;SDS011;68477;42.698;23.342;2023-03-14T03:33:53;15.60;;;7.57;;
79076;SDS011;68477;42.698;23.342;2023-03-14T03:36:22;18.33;;;8.75;;
79076;SDS011;68477;42.698;23.342;2023-03-14T03:38:48;17.77;;;8.00;;
79076;SDS011;68477;42.698;23.342;2023-03-14T03:41:14;14.88;;;8.90;;
79076;SDS011;68477;42.698;23.342;2023-03-14T03:43:39;15.82;;;8.63;;
79076;SDS011;68477;42.698;23.342;2023-03-14T03:46:05;19.52;;;10.63;;
79076;SDS011;68477;42.698;23.342;2023-03-14T03:48:32;15.88;;;8.40;;
79076;SDS011;68477;42.698;23.342;2023-03-14T03:50:57;16.52;;;8.93;;
79076;SDS011;68477;42.698;23.342;2023-03-14T03:53:23;18.13;;;9.02;;
79076;SDS011;68477;42.698;23.342;2023-03-14T03:55:50;17.00;;;9.48;;
79076;SDS011;68477;42.698;23.342;2023-03-14T03:58:16;16.77;;;9.30;;
79076;SDS011;68477;42.698;23.342;2023-03-14T04:00:42;19.00;;;9.63;;
79076;SDS011;68477;42.698;23.342;2023-03-14T04:03:07;21.00;;;9.45;;
79076;SDS011;68477;42.698;23.342;2023-03-14T04:05:32;19.48;;;10.13;;
79076;SDS011;68477;42.698;23.342;2023-03-14T04:07:59;23.00;;;9.57;;
79076;SDS011;68477;42.698;23.342;2023-03-14T04:10:25;20.98;;;10.57;;
79076;SDS011;68477;42.698;23.342;2023-03-14T04:12:50;20.80;;;9.45;;
79076;SDS011;68477;42.698;23.342;2023-03-14T04:15:16;19.42;;;10.10;;
79076;SDS011;68477;42.698;23.342;2023-03-14T04:17:41;24.63;;;11.05;;
79076;SDS011;68477;42.698;23.342;2023-03-14T04:20:07;22.70;;;11.25;;
79076;SDS011;68477;42.698;23.342;2023-03-14T04:22:35;23.35;;;10.93;;
79076;SDS011;68477;42.698;23.342;2023-03-14T04:25:01;24.77;;;11.25;;
79076;SDS011;68477;42.698;23.342;2023-03-14T04:27:28;23.13;;;10.57;;
79076;SDS011;68477;42.698;23.342;2023-03-14T04:29:54;24.48;;;11.65;;
79076;SDS011;68477;42.698;23.342;2023-03-14T04:32:19;22.10;;;10.10;;
79076;SDS011;68477;42.698;23.342;2023-03-14T04:34:44;27.90;;;12.10;;
79076;SDS011;68477;42.698;23.342;2023-03-14T04:37:10;20.15;;;11.13;;
79076;SDS011;68477;42.698;23.342;2023-03-14T04:39:36;16.83;;;10.80;;
79076;SDS011;68477;42.698;23.342;2023-03-14T04:42:01;19.63;;;10.48;;
79076;SDS011;68477;42.698;23.342;2023-03-14T04:44:27;22.42;;;13.00;;
79076;SDS011;68477;42.698;23.342;2023-03-14T04:46:52;22.08;;;10.75;;
79076;SDS011;68477;42.698;23.342;2023-03-14T04:49:18;26.08;;;11.23;;
79076;SDS011;68477;42.698;23.342;2023-03-14T04:51:43;21.88;;;10.57;;
79076;SDS011;68477;42.698;23.342;2023-03-14T04:54:09;21.83;;;10.80;;
79076;SDS011;68477;42.698;23.342;2023-03-14T04:56:34;27.58;;;11.45;;
79076;SDS011;68477;42.698;23.342;2023-03-14T04:59:00;15.82;;;9.32;;
79076;SDS011;68477;42.698;23.342;2023-03-14T05:01:25;24.00;;;10.85;;
79076;SDS011;68477;42.698;23.342;2023-03-14T05:03:51;19.83;;;11.52;;
79076;SDS011;68477;42.698;23.342;2023-03-14T05:06:16;25.38;;;12.10;;
79076;SDS011;68477;42.698;23.342;2023-03-14T05:08:42;34.05;;;16.38;;
79076;SDS011;68477;42.698;23.342;2023-03-14T05:11:09;24.15;;;10.88;;
79076;SDS011;68477;42.698;23.342;2023-03-14T05:13:35;21.38;;;11.68;;
79076;SDS011;68477;42.698;23.342;2023-03-14T05:16:06;22.48;;;11.43;;
79076;SDS011;68477;42.698;23.342;2023-03-14T05:18:33;26.85;;;12.48;;
79076;SDS011;68477;42.698;23.342;2023-03-14T05:21:00;23.52;;;12.35;;
79076;SDS011;68477;42.698;23.342;2023-03-14T05:23:25;22.25;;;11.85;;
79076;SDS011;68477;42.698;23.342;2023-03-14T05:25:51;21.45;;;10.30;;
79076;SDS011;68477;42.698;23.342;2023-03-14T05:28:17;22.10;;;11.48;;
79076;SDS011;68477;42.698;23.342;2023-03-14T05:30:43;25.70;;;11.57;;
79076;SDS011;68477;42.698;23.342;2023-03-14T05:33:08;28.02;;;12.35;;
79076;SDS011;68477;42.698;23.342;2023-03-14T05:35:34;27.35;;;12.88;;
79076;SDS011;68477;42.698;23.342;2023-03-14T05:37:59;23.25;;;11.05;;
79076;SDS011;68477;42.698;23.342;2023-03-14T05:40:25;22.50;;;11.27;;
79076;SDS011;68477;42.698;23.342;2023-03-14T05:42:52;24.67;;;12.20;;
79076;SDS011;68477;42.698;23.342;2023-03-14T05:45:17;25.42;;;13.35;;
79076;SDS011;68477;42.698;23.342;2023-03-14T05:47:43;29.15;;;12.88;;
79076;SDS011;68477;42.698;23.342;2023-03-14T05:50:09;22.52;;;10.93;;
79076;SDS011;68477;42.698;23.342;2023-03-14T05:52:35;19.27;;;11.63;;
79076;SDS011;68477;42.698;23.342;2023-03-14T05:55:01;28.70;;;13.50;;
79076;SDS011;68477;42.698;23.342;2023-03-14T05:57:26;25.05;;;12.50;;
79076;SDS011;68477;42.698;23.342;2023-03-14T05:59:52;28.85;;;14.25;;
79076;SDS011;68477;42.698;23.342;2023-03-14T06:02:17;28.67;;;13.68;;
79076;SDS011;68477;42.698;23.342;2023-03-14T06:04:43;27.55;;;13.38;;
79076;SDS011;68477;42.698;23.342;2023-03-14T06:07:08;28.60;;;14.85;;
79076;SDS011;68477;42.698;23.342;2023-03-14T06:09:35;25.25;;;12.77;;
79076;SDS011;68477;42.698;23.342;2023-03-14T06:12:00;33.17;;;12.95;;
79076;SDS011;68477;42.698;23.342;2023-03-14T06:14:25;25.80;;;13.63;;
79076;SDS011;68477;42.698;23.342;2023-03-14T06:16:51;25.00;;;13.32;;
79076;SDS011;68477;42.698;23.342;2023-03-14T06:19:17;26.58;;;13.27;;
79076;SDS011;68477;42.698;23.342;2023-03-14T06:21:43;28.60;;;13.00;;
79076;SDS011;68477;42.698;23.342;2023-03-14T06:24:08;28.45;;;14.57;;
79076;SDS011;68477;42.698;23.342;2023-03-14T06:26:33;33.90;;;14.80;;
79076;SDS011;68477;42.698;23.342;2023-03-14T06:28:59;25.90;;;12.85;;
79076;SDS011;68477;42.698;23.342;2023-03-14T06:31:28;28.67;;;13.45;;
79076;SDS011;68477;42.698;23.342;2023-03-14T06:33:55;29.90;;;13.55;;
79076;SDS011;68477;42.698;23.342;2023-03-14T06:36:20;34.42;;;15.38;;
79076;SDS011;68477;42.698;23.342;2023-03-14T06:38:46;33.00;;;16.25;;
79076;SDS011;68477;42.698;23.342;2023-03-14T06:41:11;34.05;;;14.77;;
79076;SDS011;68477;42.698;23.342;2023-03-14T06:43:37;32.72;;;13.77;;
79076;SDS011;68477;42.698;23.342;2023-03-14T06:46:02;23.85;;;13.45;;
79076;SDS011;68477;42.698;23.342;2023-03-14T06:48:28;35.75;;;13.82;;
79076;SDS011;68477;42.698;23.342;2023-03-14T06:50:53;25.58;;;13.65;;
79076;SDS011;68477;42.698;23.342;2023-03-14T06:53:19;28.05;;;14.88;;
79076;SDS011;68477;42.698;23.342;2023-03-14T06:55:45;31.15;;;13.23;;
79076;SDS011;68477;42.698;23.342;2023-03-14T06:58:10;26.60;;;14.07;;
79076;SDS011;68477;42.698;23.342;2023-03-14T07:00:36;27.95;;;13.63;;
79076;SDS011;68477;42.698;23.342;2023-03-14T07:03:02;27.65;;;14.90;;
79076;SDS011;68477;42.698;23.342;2023-03-14T07:05:27;25.08;;;13.23;;
79076;SDS011;68477;42.698;23.342;2023-03-14T07:07:53;22.00;;;11.18;;
79076;SDS011;68477;42.698;23.342;2023-03-14T07:10:18;28.73;;;14.07;;
79076;SDS011;68477;42.698;23.342;2023-03-14T07:12:44;21.33;;;13.15;;
79076;SDS011;68477;42.698;23.342;2023-03-14T07:15:09;32.30;;;14.63;;
79076;SDS011;68477;42.698;23.342;2023-03-14T07:17:35;29.95;;;13.18;;
79076;SDS011;68477;42.698;23.342;2023-03-14T07:20:01;26.17;;;13.07;;
79076;SDS011;68477;42.698;23.342;2023-03-14T07:22:26;23.88;;;13.27;;
79076;SDS011;68477;42.698;23.342;2023-03-14T07:24:52;25.98;;;13.75;;
79076;SDS011;68477;42.698;23.342;2023-03-14T07:27:17;15.07;;;8.85;;
79076;SDS011;68477;42.698;23.342;2023-03-14T07:29:42;18.70;;;7.97;;
79076;SDS011;68477;42.698;23.342;2023-03-14T07:32:08;16.75;;;9.93;;
79076;SDS011;68477;42.698;23.342;2023-03-14T07:34:34;18.85;;;11.90;;
79076;SDS011;68477;42.698;23.342;2023-03-14T07:37:00;22.88;;;10.35;;
79076;SDS011;68477;42.698;23.342;2023-03-14T07:39:25;17.58;;;10.85;;
79076;SDS011;68477;42.698;23.342;2023-03-14T07:41:50;20.23;;;10.05;;
79076;SDS011;68477;42.698;23.342;2023-03-14T07:44:16;20.15;;;9.48;;
79076;SDS011;68477;42.698;23.342;2023-03-14T07:46:41;18.70;;;8.80;;
79076;SDS011;68477;42.698;23.342;2023-03-14T07:49:07;20.67;;;8.48;;
79076;SDS011;68477;42.698;23.342;2023-03-14T07:51:32;16.35;;;9.60;;
79076;SDS011;68477;42.698;23.342;2023-03-14T07:53:58;14.20;;;7.88;;
79076;SDS011;68477;42.698;23.342;2023-03-14T07:56:23;12.88;;;7.05;;
79076;SDS011;68477;42.698;23.342;2023-03-14T07:58:48;16.75;;;8.35;;
79076;SDS011;68477;42.698;23.342;2023-03-14T08:01:14;11.57;;;7.03;;
79076;SDS011;68477;42.698;23.342;2023-03-14T08:03:39;11.57;;;7.03;;
79076;SDS011;68477;42.698;23.342;2023-03-14T08:06:05;11.05;;;7.25;;
79076;SDS011;68477;42.698;23.342;2023-03-14T08:08:30;14.38;;;7.63;;
79076;SDS011;68477;42.698;23.342;2023-03-14T08:11:01;13.15;;;6.72;;
79076;SDS011;68477;42.698;23.342;2023-03-14T08:13:28;13.90;;;6.00;;
79076;SDS011;68477;42.698;23.342;2023-03-14T08:15:53;10.00;;;5.47;;
79076;SDS011;68477;42.698;23.342;2023-03-14T08:18:19;8.77;;;5.43;;
79076;SDS011;68477;42.698;23.342;2023-03-14T08:20:44;9.63;;;5.63;;
79076;SDS011;68477;42.698;23.342;2023-03-14T08:23:10;10.27;;;5.75;;
79076;SDS011;68477;42.698;23.342;2023-03-14T08:25:35;10.52;;;6.38;;
79076;SDS011;68477;42.698;23.342;2023-03-14T08:28:02;12.73;;;6.90;;
79076;SDS011;68477;42.698;23.342;2023-03-14T08:30:29;10.05;;;5.97;;
79076;SDS011;68477;42.698;23.342;2023-03-14T08:32:56;9.45;;;6.25;;
79076;SDS011;68477;42.698;23.342;2023-03-14T08:35:22;14.65;;;6.85;;
79076;SDS011;68477;42.698;23.342;2023-03-14T08:37:48;15.10;;;6.95;;
79076;SDS011;68477;42.698;23.342;2023-03-14T08:40:14;8.82;;;6.22;;
79076;SDS011;68477;42.698;23.342;2023-03-14T08:42:42;12.52;;;6.97;;
79076;SDS011;68477;42.698;23.342;2023-03-14T08:45:08;10.93;;;5.15;;
79076;SDS011;68477;42.698;23.342;2023-03-14T08:47:35;10.48;;;6.20;;
79076;SDS011;68477;42.698;23.342;2023-03-14T08:50:01;17.65;;;7.68;;
79076;SDS011;68477;42.698;23.342;2023-03-14T08:52:29;11.70;;;6.07;;
79076;SDS011;68477;42.698;23.342;2023-03-14T08:54:55;15.20;;;7.00;;
79076;SDS011;68477;42.698;23.342;2023-03-14T08:57:21;11.18;;;6.20;;
79076;SDS011;68477;42.698;23.342;2023-03-14T08:59:47;9.85;;;5.63;;
79076;SDS011;68477;42.698;23.342;2023-03-14T09:02:12;8.20;;;6.05;;
79076;SDS011;68477;42.698;23.342;2023-03-14T09:04:38;7.57;;;4.65;;
79076;SDS011;68477;42.698;23.342;2023-03-14T09:07:03;9.88;;;5.35;;
79076;SDS011;68477;42.698;23.342;2023-03-14T09:09:29;10.90;;;5.03;;
79076;SDS011;68477;42.698;23.342;2023-03-14T09:11:55;8.80;;;5.13;;
79076;SDS011;68477;42.698;23.342;2023-03-14T09:14:21;19.80;;;5.50;;
79076;SDS011;68477;42.698;23.342;2023-03-14T09:16:48;12.00;;;6.30;;
79076;SDS011;68477;42.698;23.342;2023-03-14T09:19:13;13.07;;;6.40;;
79076;SDS011;68477;42.698;23.342;2023-03-14T09:21:40;13.00;;;6.85;;
79076;SDS011;68477;42.698;23.342;2023-03-14T09:24:05;18.08;;;7.68;;
79076;SDS011;68477;42.698;23.342;2023-03-14T09:26:31;17.02;;;7.95;;
79076;SDS011;68477;42.698;23.342;2023-03-14T09:28:56;15.00;;;7.70;;
79076;SDS011;68477;42.698;23.342;2023-03-14T09:31:22;11.23;;;6.47;;
79076;SDS011;68477;42.698;23.342;2023-03-14T09:33:48;13.73;;;6.43;;
79076;SDS011;68477;42.698;23.342;2023-03-14T09:36:13;12.10;;;6.93;;
79076;SDS011;68477;42.698;23.342;2023-03-14T09:38:39;11.93;;;6.57;;
79076;SDS011;68477;42.698;23.342;2023-03-14T09:41:11;13.23;;;6.32;;
79076;SDS011;68477;42.698;23.342;2023-03-14T09:43:40;6.93;;;4.53;;
79076;SDS011;68477;42.698;23.342;2023-03-14T09:46:08;12.38;;;6.22;;
79076;SDS011;68477;42.698;23.342;2023-03-14T09:48:36;9.65;;;5.10;;
79076;SDS011;68477;42.698;23.342;2023-03-14T09:51:03;9.00;;;4.97;;
79076;SDS011;68477;42.698;23.342;2023-03-14T09:53:40;9.60;;;4.63;;
79076;SDS011;68477;42.698;23.342;2023-03-14T09:56:18;12.10;;;5.55;;
79076;SDS011;68477;42.698;23.342;2023-03-14T09:58:45;12.23;;;5.55;;
79076;SDS011;68477;42.698;23.342;2023-03-14T10:01:19;10.75;;;5.15;;
79076;SDS011;68477;42.698;23.342;2023-03-14T10:03:49;9.52;;;6.20;;
79076;SDS011;68477;42.698;23.342;2023-03-14T10:06:18;10.02;;;6.00;;
79076;SDS011;68477;42.698;23.342;2023-03-14T10:08:51;9.70;;;6.30;;
79076;SDS011;68477;42.698;23.342;2023-03-14T10:11:18;11.40;;;6.72;;
79076;SDS011;68477;42.698;23.342;2023-03-14T10:13:53;11.70;;;6.63;;
79076;SDS011;68477;42.698;23.342;2023-03-14T10:16:30;10.68;;;6.35;;
79076;SDS011;68477;42.698;23.342;2023-03-14T10:19:04;11.60;;;6.00;;
79076;SDS011;68477;42.698;23.342;2023-03-14T10:21:54;11.73;;;5.88;;
79076;SDS011;68477;42.698;23.342;2023-03-14T10:24:26;13.52;;;6.90;;
79076;SDS011;68477;42.698;23.342;2023-03-14T10:27:04;11.05;;;6.05;;
79076;SDS011;68477;42.698;23.342;2023-03-14T10:29:54;10.00;;;5.95;;
79076;SDS011;68477;42.698;23.342;2023-03-14T10:32:21;11.60;;;6.25;;
79076;SDS011;68477;42.698;23.342;2023-03-14T10:40:47;11.75;;;5.43;;
79076;SDS011;68477;42.698;23.342;2023-03-14T10:43:15;11.00;;;4.82;;
79076;SDS011;68477;42.698;23.342;2023-03-14T10:45:44;7.72;;;5.25;;
79076;SDS011;68477;42.698;23.342;2023-03-14T10:48:18;6.95;;;4.70;;
79076;SDS011;68477;42.698;23.342;2023-03-14T10:51:09;8.20;;;5.07;;
79076;SDS011;68477;42.698;23.342;2023-03-14T10:56:11;9.55;;;4.60;;
79076;SDS011;68477;42.698;23.342;2023-03-14T10:58:41;9.80;;;4.78;;
79076;SDS011;68477;42.698;23.342;2023-03-14T11:03:47;8.57;;;4.10;;
79076;SDS011;68477;42.698;23.342;2023-03-14T11:06:22;5.63;;;3.80;;
79076;SDS011;68477;42.698;23.342;2023-03-14T11:11:37;5.78;;;3.60;;
79076;SDS011;68477;42.698;23.342;2023-03-14T11:28:18;7.15;;;3.92;;
79076;SDS011;68477;42.698;23.342;2023-03-14T11:31:03;6.63;;;3.67;;
79076;SDS011;68477;42.698;23.342;2023-03-14T11:33:50;8.73;;;4.20;;
79076;SDS011;68477;42.698;23.342;2023-03-14T11:36:27;10.13;;;3.72;;
79076;SDS011;68477;42.698;23.342;2023-03-14T11:38:59;4.65;;;2.90;;
79076;SDS011;68477;42.698;23.342;2023-03-14T11:41:25;7.00;;;3.42;;
79076;SDS011;68477;42.698;23.342;2023-03-14T11:43:57;10.75;;;3.63;;
79076;SDS011;68477;42.698;23.342;2023-03-14T11:49:20;5.57;;;3.35;;
79076;SDS011;68477;42.698;23.342;2023-03-14T11:51:55;7.55;;;3.75;;
79076;SDS011;68477;42.698;23.342;2023-03-14T11:54:43;5.32;;;3.80;;
79076;SDS011;68477;42.698;23.342;2023-03-14T11:57:18;5.53;;;3.00;;
79076;SDS011;68477;42.698;23.342;2023-03-14T12:13:03;4.22;;;2.47;;
79076;SDS011;68477;42.698;23.342;2023-03-14T12:15:29;6.50;;;2.90;;
79076;SDS011;68477;42.698;23.342;2023-03-14T12:17:55;4.90;;;2.70;;
79076;SDS011;68477;42.698;23.342;2023-03-14T12:22:54;3.58;;;2.53;;
79076;SDS011;68477;42.698;23.342;2023-03-14T12:25:25;3.90;;;2.35;;
79076;SDS011;68477;42.698;23.342;2023-03-14T12:30:28;4.40;;;2.78;;
79076;SDS011;68477;42.698;23.342;2023-03-14T12:35:43;4.40;;;2.80;;
79076;SDS011;68477;42.698;23.342;2023-03-14T12:38:12;4.03;;;2.65;;
79076;SDS011;68477;42.698;23.342;2023-03-14T12:43:45;8.48;;;2.72;;
79076;SDS011;68477;42.698;23.342;2023-03-14T12:48:46;5.05;;;2.38;;
79076;SDS011;68477;42.698;23.342;2023-03-14T12:51:13;5.32;;;2.58;;
79076;SDS011;68477;42.698;23.342;2023-03-14T12:56:36;4.63;;;2.75;;
79076;SDS011;68477;42.698;23.342;2023-03-14T13:04:35;5.35;;;2.20;;
79076;SDS011;68477;42.698;23.342;2023-03-14T13:12:47;4.00;;;2.10;;
79076;SDS011;68477;42.698;23.342;2023-03-14T13:15:27;5.07;;;2.30;;
79076;SDS011;68477;42.698;23.342;2023-03-14T13:18:01;7.85;;;2.83;;
79076;SDS011;68477;42.698;23.342;2023-03-14T13:23:00;4.50;;;2.55;;
79076;SDS011;68477;42.698;23.342;2023-03-14T13:25:29;4.85;;;2.50;;
79076;SDS011;68477;42.698;23.342;2023-03-14T13:27:57;2.92;;;2.10;;
79076;SDS011;68477;42.698;23.342;2023-03-14T13:30:27;5.90;;;2.50;;
79076;SDS011;68477;42.698;23.342;2023-03-14T13:33:02;3.55;;;2.20;;
79076;SDS011;68477;42.698;23.342;2023-03-14T13:35:30;3.67;;;2.50;;
79076;SDS011;68477;42.698;23.342;2023-03-14T13:38:04;6.75;;;2.75;;
79076;SDS011;68477;42.698;23.342;2023-03-14T13:40:31;4.22;;;2.40;;
79076;SDS011;68477;42.698;23.342;2023-03-14T13:43:11;6.55;;;2.25;;
79076;SDS011;68477;42.698;23.342;2023-03-14T13:45:44;3.75;;;2.10;;
79076;SDS011;68477;42.698;23.342;2023-03-14T13:48:17;5.63;;;2.33;;
79076;SDS011;68477;42.698;23.342;2023-03-14T13:50:45;4.38;;;2.67;;
79076;SDS011;68477;42.698;23.342;2023-03-14T13:53:15;4.60;;;2.20;;
79076;SDS011;68477;42.698;23.342;2023-03-14T13:55:41;3.80;;;2.28;;
79076;SDS011;68477;42.698;23.342;2023-03-14T13:58:28;4.55;;;2.10;;
79076;SDS011;68477;42.698;23.342;2023-03-14T14:00:55;3.78;;;2.20;;
79076;SDS011;68477;42.698;23.342;2023-03-14T14:03:40;5.40;;;2.67;;
79076;SDS011;68477;42.698;23.342;2023-03-14T14:06:10;4.72;;;2.38;;
79076;SDS011;68477;42.698;23.342;2023-03-14T14:08:44;7.40;;;2.63;;
79076;SDS011;68477;42.698;23.342;2023-03-14T14:11:11;7.97;;;3.05;;
79076;SDS011;68477;42.698;23.342;2023-03-14T14:13:46;4.47;;;2.42;;
79076;SDS011;68477;42.698;23.342;2023-03-14T14:16:12;3.95;;;2.40;;
79076;SDS011;68477;42.698;23.342;2023-03-14T14:18:40;3.80;;;2.40;;
79076;SDS011;68477;42.698;23.342;2023-03-14T14:21:06;5.22;;;3.10;;
79076;SDS011;68477;42.698;23.342;2023-03-14T14:23:31;4.82;;;2.30;;
79076;SDS011;68477;42.698;23.342;2023-03-14T14:25:57;5.18;;;2.67;;
79076;SDS011;68477;42.698;23.342;2023-03-14T14:28:30;6.55;;;3.13;;
79076;SDS011;68477;42.698;23.342;2023-03-14T14:31:15;8.15;;;3.13;;
79076;SDS011;68477;42.698;23.342;2023-03-14T14:36:31;4.18;;;2.30;;
79076;SDS011;68477;42.698;23.342;2023-03-14T14:39:18;10.45;;;2.78;;
79076;SDS011;68477;42.698;23.342;2023-03-14T14:41:49;3.80;;;2.33;;
79076;SDS011;68477;42.698;23.342;2023-03-14T14:44:18;3.80;;;2.35;;
79076;SDS011;68477;42.698;23.342;2023-03-14T14:46:50;5.10;;;2.67;;
79076;SDS011;68477;42.698;23.342;2023-03-14T14:49:17;5.07;;;2.47;;
79076;SDS011;68477;42.698;23.342;2023-03-14T14:54:15;3.35;;;2.22;;
79076;SDS011;68477;42.698;23.342;2023-03-14T14:56:47;5.22;;;2.83;;
79076;SDS011;68477;42.698;23.342;2023-03-14T14:59:20;5.00;;;2.85;;
79076;SDS011;68477;42.698;23.342;2023-03-14T15:01:48;8.90;;;3.35;;
79076;SDS011;68477;42.698;23.342;2023-03-14T15:04:15;6.88;;;2.85;;
79076;SDS011;68477;42.698;23.342;2023-03-14T15:06:46;5.30;;;3.42;;
79076;SDS011;68477;42.698;23.342;2023-03-14T15:09:13;8.70;;;2.75;;
79076;SDS011;68477;42.698;23.342;2023-03-14T15:11:41;7.72;;;2.92;;
79076;SDS011;68477;42.698;23.342;2023-03-14T15:14:07;9.73;;;3.60;;
79076;SDS011;68477;42.698;23.342;2023-03-14T15:16:32;6.35;;;3.47;;
79076;SDS011;68477;42.698;23.342;2023-03-14T15:18:59;5.82;;;3.25;;
79076;SDS011;68477;42.698;23.342;2023-03-14T15:21:27;5.05;;;3.10;;
79076;SDS011;68477;42.698;23.342;2023-03-14T15:23:53;6.28;;;3.35;;
79076;SDS011;68477;42.698;23.342;2023-03-14T15:26:24;4.85;;;3.15;;
79076;SDS011;68477;42.698;23.342;2023-03-14T15:28:51;6.93;;;3.40;;
79076;SDS011;68477;42.698;23.342;2023-03-14T15:31:17;9.55;;;3.17;;
79076;SDS011;68477;42.698;23.342;2023-03-14T15:33:44;5.38;;;2.85;;
79076;SDS011;68477;42.698;23.342;2023-03-14T15:36:16;6.35;;;3.28;;
79076;SDS011;68477;42.698;23.342;2023-03-14T15:38:47;10.93;;;3.50;;
79076;SDS011;68477;42.698;23.342;2023-03-14T15:41:13;7.97;;;4.25;;
79076;SDS011;68477;42.698;23.342;2023-03-14T15:43:40;9.23;;;3.80;;
79076;SDS011;68477;42.698;23.342;2023-03-14T15:46:07;7.75;;;3.85;;
79076;SDS011;68477;42.698;23.342;2023-03-14T15:48:33;11.48;;;4.00;;
79076;SDS011;68477;42.698;23.342;2023-03-14T15:50:59;9.18;;;3.75;;
79076;SDS011;68477;42.698;23.342;2023-03-14T15:53:24;12.38;;;4.45;;